Time;durP1;ratioP1;P1;durP2;ratioP2;P2;SDS_P1;SDS_P2;PMS_P1;PMS_P2;Temp;Humidity;BMP_temperature;BMP_pressure;BME280_temperature;BME280_humidity;BME280_pressure;Samples;Min_cycle;Max_cycle;Signal;HPM_P1;HPM_P2
2022/09/05 00:01:37;;;;;;;5.25;4.38;;;17.80;95.40;;;;;;5135542;27;20051;-72
2022/09/05 00:04:05;;;;;;;6.15;4.55;;;17.70;95.50;;;;;;5136319;27;20043;-72
2022/09/05 00:06:38;;;;;;;7.32;4.45;;;17.70;95.50;;;;;;5118716;27;20138;-72
2022/09/05 00:09:41;;;;;;;6.20;4.55;;;17.60;95.70;;;;;;5136661;27;20502;-72
2022/09/05 00:12:10;;;;;;;4.50;3.75;;;17.60;95.80;;;;;;5117569;27;20074;-72
2022/09/05 00:15:16;;;;;;;5.65;4.13;;;17.60;95.80;;;;;;5135406;27;20533;-72
2022/09/05 00:18:12;;;;;;;5.93;4.50;;;17.60;95.90;;;;;;5117965;27;20072;-72
2022/09/05 00:20:46;;;;;;;4.82;3.80;;;17.60;96.00;;;;;;5135210;27;20070;-72
2022/09/05 00:23:35;;;;;;;7.18;4.50;;;17.50;96.10;;;;;;5135246;27;20050;-72
2022/09/05 00:26:24;;;;;;;6.05;3.95;;;17.50;96.30;;;;;;5134749;27;20046;-72
2022/09/05 00:29:08;;;;;;;4.95;4.40;;;17.50;96.40;;;;;;5136203;27;20046;-72
2022/09/05 00:32:05;;;;;;;8.13;4.90;;;17.50;96.60;;;;;;5136292;27;20035;-72
2022/09/05 00:34:58;;;;;;;4.30;3.90;;;17.40;96.60;;;;;;5136377;27;20093;-72
2022/09/05 00:37:35;;;;;;;5.82;3.97;;;17.40;96.60;;;;;;5134677;27;20059;-72
2022/09/05 00:40:22;;;;;;;4.90;3.88;;;17.50;96.60;;;;;;5134904;27;20544;-72
2022/09/05 00:42:53;;;;;;;6.32;4.10;;;17.50;96.70;;;;;;5134972;27;20367;-72
2022/09/05 00:45:52;;;;;;;4.70;4.20;;;17.50;96.50;;;;;;5134991;27;20092;-72
2022/09/05 00:48:59;;;;;;;5.38;3.97;;;17.60;96.50;;;;;;5119078;27;20183;-73
2022/09/05 00:51:48;;;;;;;5.75;4.32;;;17.60;96.40;;;;;;5019282;28;20424;-72
2022/09/05 00:54:16;;;;;;;6.88;4.15;;;17.60;96.30;;;;;;5044130;28;20168;-72
2022/09/05 00:57:05;;;;;;;5.13;4.20;;;17.70;96.30;;;;;;5088054;27;20043;-72
2022/09/05 00:59:55;;;;;;;8.13;5.03;;;17.70;96.30;;;;;;5134494;27;20039;-72
2022/09/05 01:02:30;;;;;;;;;;;17.60;96.30;;;;;;5135546;27;20197;-73
2022/09/05 01:05:17;;;;;;;5.65;3.90;;;17.60;96.40;;;;;;5133368;27;19915;-72
2022/09/05 01:08:08;;;;;;;16.83;4.55;;;17.60;96.20;;;;;;5133389;27;20447;-72
2022/09/05 01:10:56;;;;;;;5.93;4.60;;;17.60;96.30;;;;;;5133210;27;20061;-72
2022/09/05 01:14:04;;;;;;;4.60;4.18;;;17.60;96.30;;;;;;5133209;27;20070;-72
2022/09/05 01:16:49;;;;;;;5.28;4.72;;;17.50;96.40;;;;;;5077550;27;20078;-72
2022/09/05 01:19:43;;;;;;;5.30;4.80;;;17.50;96.40;;;;;;5130925;27;20043;-72
2022/09/05 01:22:37;;;;;;;10.57;5.50;;;17.50;96.50;;;;;;5130426;27;20085;-72
2022/09/05 01:25:30;;;;;;;6.25;4.28;;;17.50;96.50;;;;;;5134192;27;20045;-72
2022/09/05 01:27:59;;;;;;;6.07;5.07;;;17.40;96.90;;;;;;5132904;27;20603;-72
2022/09/05 01:30:56;;;;;;;4.65;4.25;;;17.40;96.60;;;;;;5134269;27;20144;-73
2022/09/05 01:33:36;;;;;;;6.25;4.53;;;17.40;96.80;;;;;;5133985;27;20043;-72
2022/09/05 01:36:40;;;;;;;6.68;4.85;;;17.40;96.70;;;;;;5134075;27;20035;-72
2022/09/05 01:39:21;;;;;;;8.88;4.80;;;17.40;96.80;;;;;;5101214;27;20043;-72
2022/09/05 01:42:02;;;;;;;8.20;5.82;;;17.30;96.70;;;;;;5132529;27;20077;-72
2022/09/05 01:44:54;;;;;;;8.07;5.20;;;17.30;96.70;;;;;;5115331;27;20039;-72
2022/09/05 01:47:39;;;;;;;5.55;4.90;;;17.30;96.80;;;;;;5115557;27;20134;-72
2022/09/05 01:50:33;;;;;;;7.13;5.30;;;17.20;96.90;;;;;;5130428;27;20039;-72
2022/09/05 01:53:15;;;;;;;5.85;5.25;;;17.10;97.00;;;;;;5132464;27;20593;-72
2022/09/05 01:56:18;;;;;;;6.22;5.30;;;17.00;97.20;;;;;;5133375;27;20054;-72
2022/09/05 01:58:55;;;;;;;8.00;5.90;;;17.00;97.30;;;;;;5133386;27;20061;-72
2022/09/05 02:01:29;;;;;;;5.97;5.38;;;17.00;97.50;;;;;;5133370;27;20131;-72
2022/09/05 02:04:18;;;;;;;10.23;5.68;;;16.90;97.60;;;;;;5133440;27;20072;-72
2022/09/05 02:07:12;;;;;;;6.80;5.88;;;16.90;97.80;;;;;;5133140;27;20050;-72
2022/09/05 02:09:59;;;;;;;8.63;6.30;;;16.80;97.90;;;;;;5133198;27;20074;-72
2022/09/05 02:12:39;;;;;;;7.25;6.55;;;16.80;98.10;;;;;;5133022;27;20071;-72
2022/09/05 02:15:21;;;;;;;8.95;6.55;;;16.80;98.20;;;;;;5115896;27;20130;-72
2022/09/05 02:17:56;;;;;;;9.43;7.00;;;16.70;98.30;;;;;;5132890;27;20095;-72
2022/09/05 02:20:44;;;;;;;7.18;6.47;;;16.60;98.40;;;;;;5115829;27;20077;-72
2022/09/05 02:23:16;;;;;;;6.57;5.90;;;16.60;98.60;;;;;;5133252;27;20091;-72
2022/09/05 02:25:47;;;;;;;7.35;6.32;;;16.50;98.70;;;;;;5134118;27;20039;-72
2022/09/05 02:28:26;;;;;;;6.90;6.20;;;16.50;98.80;;;;;;5134273;27;20058;-72
2022/09/05 02:30:59;;;;;;;7.25;6.55;;;16.50;99.00;;;;;;5115629;27;20035;-72
2022/09/05 02:33:34;;;;;;;6.97;6.18;;;16.40;99.20;;;;;;5134116;27;20039;-72
2022/09/05 02:36:28;;;;;;;9.82;6.70;;;16.40;99.40;;;;;;5132726;27;20039;-72
2022/09/05 02:39:06;;;;;;;7.07;6.47;;;16.30;99.50;;;;;;5132702;27;20057;-72
2022/09/05 02:42:10;;;;;;;7.97;6.60;;;16.30;99.70;;;;;;5133587;27;20460;-72
2022/09/05 02:44:56;;;;;;;6.78;5.78;;;16.20;99.90;;;;;;5087330;27;20082;-72
2022/09/05 02:47:38;;;;;;;7.00;6.30;;;16.20;99.90;;;;;;5132816;28;20122;-72
2022/09/05 02:50:33;;;;;;;7.43;6.47;;;16.10;99.90;;;;;;5129207;27;20699;-72
2022/09/05 02:52:59;;;;;;;8.70;6.32;;;16.00;99.90;;;;;;5131682;28;20047;-72
2022/09/05 02:55:36;;;;;;;8.00;7.30;;;16.00;99.90;;;;;;5114465;28;20176;-72
2022/09/05 02:58:53;;;;;;;8.82;7.28;;;15.90;99.90;;;;;;5131555;28;20047;-72
2022/09/05 03:01:48;;;;;;;9.88;7.10;;;15.90;99.90;;;;;;5089011;28;20222;-72
2022/09/05 03:04:29;;;;;;;7.88;6.85;;;15.80;99.90;;;;;;5132705;28;20047;-74
2022/09/05 03:07:14;;;;;;;7.18;6.47;;;15.80;99.90;;;;;;5132771;27;20035;-74
2022/09/05 03:09:58;;;;;;;11.10;6.25;;;15.70;99.90;;;;;;5131454;28;20041;-74
2022/09/05 03:12:39;;;;;;;10.50;7.40;;;15.70;99.90;;;;;;5131319;28;20074;-74
2022/09/05 03:15:41;;;;;;;8.02;7.25;;;15.70;99.90;;;;;;5114226;28;20043;-74
2022/09/05 03:18:25;;;;;;;8.18;7.40;;;15.70;99.90;;;;;;5129358;28;20047;-75
2022/09/05 03:21:17;;;;;;;9.13;7.20;;;15.60;99.90;;;;;;5132755;27;20430;-75
2022/09/05 03:23:46;;;;;;;8.50;7.43;;;15.50;99.90;;;;;;5131609;28;20096;-75
2022/09/05 03:26:33;;;;;;;8.38;6.70;;;15.50;99.90;;;;;;5132544;27;20043;-75
2022/09/05 03:29:02;;;;;;;8.32;7.53;;;15.50;99.90;;;;;;5131161;28;20043;-75
2022/09/05 03:32:03;;;;;;;9.40;7.97;;;15.40;99.90;;;;;;5131462;28;20047;-75
2022/09/05 03:34:52;;;;;;;8.85;7.28;;;15.40;99.90;;;;;;5130531;28;20096;-74
2022/09/05 03:38:26;;;;;;;9.43;7.75;;;15.40;99.90;;;;;;5114036;28;20180;-74
2022/09/05 03:41:04;;;;;;;7.68;6.80;;;15.40;99.90;;;;;;5049838;28;20129;-75
2022/09/05 03:43:56;;;;;;;9.02;8.05;;;15.30;99.90;;;;;;5131276;28;20092;-74
2022/09/05 03:47:09;;;;;;;10.45;8.10;;;15.30;99.90;;;;;;5117786;28;20039;-74
2022/09/05 03:50:19;;;;;;;9.23;8.13;;;15.30;99.90;;;;;;5119616;28;20096;-74
2022/09/05 03:53:06;;;;;;;8.73;7.80;;;15.30;99.90;;;;;;5131024;28;20039;-75
2022/09/05 03:56:05;;;;;;;10.95;7.90;;;15.20;99.90;;;;;;5132561;27;20047;-75
2022/09/05 03:58:45;;;;;;;10.85;8.77;;;15.20;99.90;;;;;;5100358;27;20039;-74
2022/09/05 04:01:35;;;;;;;14.60;9.52;;;15.20;99.90;;;;;;5132462;27;20050;-74
2022/09/05 04:04:07;;;;;;;9.15;8.18;;;15.20;99.90;;;;;;5136058;27;20070;-75
2022/09/05 04:06:46;;;;;;;9.32;8.52;;;15.30;99.90;;;;;;5117487;27;20035;-75
2022/09/05 04:09:17;;;;;;;8.60;7.63;;;15.30;99.90;;;;;;5135721;27;20118;-75
2022/09/05 04:11:48;;;;;;;9.57;8.63;;;15.20;99.90;;;;;;5135785;27;20415;-74
2022/09/05 04:14:30;;;;;;;10.45;9.40;;;15.20;99.90;;;;;;5134344;27;20716;-75
2022/09/05 04:17:00;;;;;;;10.20;8.25;;;15.20;99.90;;;;;;5135839;27;20035;-76
2022/09/05 04:19:34;;;;;;;10.45;9.45;;;15.20;99.90;;;;;;5114837;27;20035;-74
2022/09/05 04:22:15;;;;;;;9.45;8.65;;;15.20;99.90;;;;;;5117100;27;20035;-76
2022/09/05 04:25:25;;;;;;;10.55;9.57;;;15.20;99.90;;;;;;5134326;27;20039;-76
2022/09/05 04:28:14;;;;;;;10.95;9.57;;;15.20;99.90;;;;;;5134327;27;20043;-77
2022/09/05 04:30:51;;;;;;;10.13;9.00;;;15.20;99.90;;;;;;5103758;27;20054;-77
2022/09/05 04:33:36;;;;;;;10.20;9.05;;;15.20;99.90;;;;;;5135565;27;20043;-77
2022/09/05 04:36:13;;;;;;;11.95;9.88;;;15.30;99.90;;;;;;5133863;27;20563;-76
2022/09/05 04:38:44;;;;;;;10.35;9.35;;;15.30;99.90;;;;;;5117127;27;20047;-79
2022/09/05 04:41:11;;;;;;;10.95;9.85;;;15.30;99.90;;;;;;5133965;27;20035;-78
2022/09/05 04:43:43;;;;;;;10.07;8.45;;;15.40;99.90;;;;;;5135183;27;20486;-78
2022/09/05 04:46:27;;;;;;;11.15;10.02;;;15.50;99.90;;;;;;5135316;27;20039;-78
2022/09/05 04:49:05;;;;;;;11.23;10.10;;;15.50;99.90;;;;;;5132659;27;20050;-77
2022/09/05 04:51:43;;;;;;;10.65;9.55;;;15.50;99.90;;;;;;5134912;27;20571;-78
2022/09/05 04:54:15;;;;;;;10.85;9.52;;;15.50;99.90;;;;;;5135098;27;20499;-77
2022/09/05 04:56:45;;;;;;;13.35;10.05;;;15.40;99.90;;;;;;5133816;27;20376;-77
2022/09/05 04:59:30;;;;;;;10.60;9.60;;;15.50;99.90;;;;;;5116684;27;20039;-79
2022/09/05 05:02:13;;;;;;;11.52;10.43;;;15.40;99.90;;;;;;5134868;27;20046;-78
2022/09/05 05:04:39;;;;;;;10.23;9.18;;;15.40;99.90;;;;;;5134907;27;20114;-78
2022/09/05 05:07:16;;;;;;;10.50;9.50;;;15.50;99.90;;;;;;5116134;27;20046;-77
2022/09/05 05:10:03;;;;;;;13.82;10.93;;;15.40;99.90;;;;;;5133551;27;20047;-77
2022/09/05 05:12:53;;;;;;;13.10;10.80;;;15.40;99.90;;;;;;5134440;27;20432;-77
2022/09/05 05:15:21;;;;;;;;;;;15.30;99.90;;;;;;5135068;27;20063;-77
2022/09/05 05:18:25;;;;;;;11.45;9.75;;;15.30;99.90;;;;;;5134623;27;19967;-78
2022/09/05 05:21:15;;;;;;;10.93;9.85;;;15.30;99.90;;;;;;5133683;27;20047;-77
2022/09/05 05:23:49;;;;;;;11.82;10.32;;;15.30;99.90;;;;;;5133092;27;20043;-77
2022/09/05 05:26:29;;;;;;;12.50;10.27;;;15.30;99.90;;;;;;5134377;27;20100;-77
2022/09/05 05:29:08;;;;;;;10.30;9.27;;;15.30;99.90;;;;;;5115883;27;20130;-78
2022/09/05 05:31:57;;;;;;;13.50;9.40;;;15.40;99.90;;;;;;5132944;27;20031;-77
2022/09/05 05:34:26;;;;;;;9.43;8.40;;;15.40;99.90;;;;;;5132800;27;20342;-78
2022/09/05 05:37:10;;;;;;;10.07;9.13;;;15.30;99.90;;;;;;5133955;27;20522;-77
2022/09/05 05:39:43;;;;;;;10.60;9.60;;;15.40;99.90;;;;;;5133996;27;20538;-78
2022/09/05 05:42:23;;;;;;;10.27;9.27;;;15.40;99.90;;;;;;5134242;27;20039;-77
2022/09/05 05:44:52;;;;;;;11.02;9.82;;;15.50;99.90;;;;;;5134271;27;20494;-77
2022/09/05 05:47:22;;;;;;;11.15;9.98;;;15.50;99.90;;;;;;5133880;27;20110;-77
2022/09/05 05:50:03;;;;;;;10.63;9.52;;;15.60;99.90;;;;;;5130195;27;20031;-77
2022/09/05 05:53:03;;;;;;;11.40;10.30;;;15.70;99.90;;;;;;5132668;27;20047;-77
2022/09/05 05:55:42;;;;;;;12.38;9.25;;;15.70;99.90;;;;;;5132596;27;20050;-77
2022/09/05 05:58:14;;;;;;;11.00;9.47;;;15.80;99.90;;;;;;5135298;27;20168;-77
2022/09/05 06:01:01;;;;;;;10.45;9.38;;;15.90;99.90;;;;;;5134133;27;20114;-77
2022/09/05 06:04:04;;;;;;;10.23;9.13;;;16.00;99.90;;;;;;5135441;27;20035;-78
2022/09/05 06:06:41;;;;;;;10.57;9.52;;;16.10;99.90;;;;;;5134208;27;20035;-77
2022/09/05 06:09:42;;;;;;;11.02;9.77;;;16.30;99.90;;;;;;5135441;27;20039;-77
2022/09/05 06:12:44;;;;;;;14.30;9.93;;;16.40;99.90;;;;;;5116664;27;20100;-77
2022/09/05 06:15:24;;;;;;;11.05;9.13;;;16.60;99.90;;;;;;5133676;27;20141;-77
2022/09/05 06:18:13;;;;;;;9.38;8.40;;;16.70;99.90;;;;;;5133257;27;20051;-77
2022/09/05 06:21:11;;;;;;;11.98;9.65;;;17.00;99.90;;;;;;5132491;27;20126;-78
2022/09/05 06:23:59;;;;;;;11.27;8.65;;;17.20;99.90;;;;;;5133061;27;20546;-77
2022/09/05 06:26:25;;;;;;;9.48;8.30;;;17.40;99.90;;;;;;5133773;27;20043;-77
2022/09/05 06:29:12;;;;;;;8.93;7.72;;;17.80;99.90;;;;;;5133407;27;20058;-78
2022/09/05 06:32:11;;;;;;;10.05;8.10;;;18.00;99.90;;;;;;5134414;27;20475;-77
2022/09/05 06:34:55;;;;;;;9.20;8.35;;;18.30;99.90;;;;;;5134736;27;20027;-77
2022/09/05 06:37:54;;;;;;;8.75;7.85;;;18.60;99.90;;;;;;5135908;27;20049;-80
2022/09/05 06:40:37;;;;;;;8.90;7.88;;;19.00;99.90;;;;;;5131964;27;20066;-80
2022/09/05 06:43:30;;;;;;;9.70;7.38;;;19.10;99.90;;;;;;5140310;27;20039;-79
2022/09/05 06:46:21;;;;;;;8.52;7.65;;;19.10;99.90;;;;;;5155252;27;20034;-79
2022/09/05 06:48:58;;;;;;;9.85;7.70;;;19.20;99.90;;;;;;5152348;27;20070;-80
2022/09/05 06:51:45;;;;;;;9.57;8.02;;;19.20;99.90;;;;;;5155162;27;20114;-80
2022/09/05 06:54:29;;;;;;;10.48;8.32;;;19.20;99.90;;;;;;5153981;27;20117;-80
2022/09/05 06:57:19;;;;;;;8.45;7.60;;;19.30;99.90;;;;;;5153697;27;20043;-80
2022/09/05 07:00:19;;;;;;;9.35;7.82;;;19.40;99.90;;;;;;5153907;27;20519;-81
2022/09/05 07:03:21;;;;;;;9.13;8.18;;;19.50;99.90;;;;;;5135288;27;20103;-80
2022/09/05 07:05:59;;;;;;;8.95;8.07;;;19.60;99.90;;;;;;5153850;27;20072;-80
2022/09/05 07:08:43;;;;;;;10.80;8.18;;;19.60;99.90;;;;;;5153802;27;20035;-81
2022/09/05 07:11:40;;;;;;;12.95;8.02;;;19.70;99.90;;;;;;5154817;27;20524;-80
2022/09/05 07:14:27;;;;;;;11.18;9.05;;;19.80;99.90;;;;;;5139963;27;20042;-79
2022/09/05 07:17:17;;;;;;;10.52;7.93;;;19.80;99.90;;;;;;5155077;27;20118;-80
2022/09/05 07:20:22;;;;;;;10.95;9.00;;;19.90;99.90;;;;;;5152243;27;20047;-80
2022/09/05 07:23:20;;;;;;;9.57;8.70;;;20.10;99.90;;;;;;5136438;27;20039;-75
2022/09/05 07:25:49;;;;;;;10.43;8.93;;;20.20;99.90;;;;;;5139819;27;20045;-75
2022/09/05 07:28:19;;;;;;;13.97;9.00;;;20.30;99.90;;;;;;5154310;27;20043;-74
2022/09/05 07:30:52;;;;;;;9.73;8.85;;;20.40;99.90;;;;;;5153163;27;20099;-75
2022/09/05 07:33:28;;;;;;;11.40;8.15;;;20.60;99.90;;;;;;5154701;27;20090;-75
2022/09/05 07:36:02;;;;;;;9.25;8.32;;;20.80;99.90;;;;;;5154878;27;20066;-74
2022/09/05 07:38:31;;;;;;;9.65;8.45;;;21.00;99.90;;;;;;5156851;27;20051;-75
2022/09/05 07:41:09;;;;;;;8.95;8.07;;;21.10;99.90;;;;;;5157977;27;20074;-74
2022/09/05 07:43:45;;;;;;;9.43;8.10;;;21.20;99.90;;;;;;5157007;27;20078;-77
2022/09/05 07:46:23;;;;;;;9.93;8.00;;;21.40;99.90;;;;;;5119005;22;20108;-80
2022/09/05 07:49:01;;;;;;;9.45;8.40;;;21.60;99.90;;;;;;5042222;28;20045;-80
2022/09/05 07:51:30;;;;;;;10.70;8.07;;;21.70;99.90;;;;;;5059786;28;20044;-80
2022/09/05 07:54:01;;;;;;;9.85;8.45;;;21.90;99.90;;;;;;5042788;28;20099;-80
2022/09/05 07:56:47;;;;;;;11.30;8.40;;;22.00;99.70;;;;;;5059905;28;20051;-79
2022/09/05 07:59:14;;;;;;;11.63;9.07;;;22.10;99.40;;;;;;5043069;28;20041;-81
2022/09/05 08:01:44;;;;;;;10.05;8.65;;;22.10;99.20;;;;;;5038038;28;20041;-79
2022/09/05 08:04:30;;;;;;;;;;;22.30;99.10;;;;;;5055700;28;20055;-79
2022/09/05 08:07:00;;;;;;;8.82;7.93;;;22.50;99.20;;;;;;5054187;28;19917;-79
2022/09/05 08:09:41;;;;;;;14.23;8.30;;;22.80;99.30;;;;;;5055188;28;20045;-81
2022/09/05 08:12:22;;;;;;;11.95;7.95;;;23.10;99.00;;;;;;5071114;28;20045;-80
2022/09/05 08:15:07;;;;;;;10.15;7.75;;;23.30;98.30;;;;;;5037438;28;20421;-79
2022/09/05 08:17:51;;;;;;;8.43;7.22;;;23.50;97.70;;;;;;5070795;28;20041;-81
2022/09/05 08:20:22;;;;;;;8.30;7.47;;;23.60;97.50;;;;;;5021092;28;20056;-79
2022/09/05 08:23:05;;;;;;;10.52;7.97;;;23.80;97.40;;;;;;5070486;28;20102;-81
2022/09/05 08:25:36;;;;;;;8.43;7.53;;;24.10;97.00;;;;;;5054997;28;20140;-80
2022/09/05 08:28:33;;;;;;;11.20;7.20;;;24.40;96.70;;;;;;5054698;28;20041;-80
2022/09/05 08:31:13;;;;;;;8.40;7.28;;;24.70;96.40;;;;;;5046096;28;20060;-81
2022/09/05 08:33:39;;;;;;;9.85;7.25;;;25.20;96.00;;;;;;5037392;28;20041;-80
2022/09/05 08:36:18;;;;;;;14.30;7.10;;;25.50;95.70;;;;;;5054289;28;20189;-81
2022/09/05 08:38:44;;;;;;;7.05;5.93;;;25.80;94.30;;;;;;5057187;28;20368;-80
2022/09/05 08:41:33;;;;;;;9.95;5.93;;;26.00;93.70;;;;;;5074678;28;20044;-80
2022/09/05 08:44:19;;;;;;;7.30;6.60;;;26.30;93.50;;;;;;5056972;28;20488;-79
2022/09/05 08:46:54;;;;;;;7.65;5.80;;;26.60;92.70;;;;;;5073852;28;20143;-82
2022/09/05 08:49:35;;;;;;;5.72;5.13;;;26.80;91.80;;;;;;5074303;28;20095;-81
2022/09/05 08:52:32;;;;;;;5.43;4.93;;;27.10;92.00;;;;;;5056901;28;20338;-80
2022/09/05 08:55:10;;;;;;;7.57;5.20;;;27.40;91.30;;;;;;5063048;28;20059;-82
2022/09/05 08:57:59;;;;;;;6.30;4.60;;;27.70;90.70;;;;;;5040055;28;20032;-81
2022/09/05 09:00:27;;;;;;;;;;;27.80;90.10;;;;;;5057256;28;20123;-80
2022/09/05 09:03:11;;;;;;;5.80;4.60;;;28.10;88.70;;;;;;5056664;28;19916;-80
2022/09/05 09:06:14;;;;;;;6.50;4.28;;;28.20;86.90;;;;;;5056620;28;20048;-79
2022/09/05 09:08:49;;;;;;;5.35;4.47;;;28.50;87.00;;;;;;5056324;28;20327;-81
2022/09/05 09:11:39;;;;;;;8.68;4.10;;;28.70;86.60;;;;;;5073965;28;20158;-80
2022/09/05 09:14:35;;;;;;;5.82;4.10;;;28.90;84.50;;;;;;5074757;28;20141;-80
2022/09/05 09:17:13;;;;;;;5.45;3.70;;;29.20;83.30;;;;;;5073816;28;20129;-81
2022/09/05 09:20:05;;;;;;;5.75;3.63;;;29.40;83.40;;;;;;5056102;28;20081;-80
2022/09/05 09:23:10;;;;;;;3.88;3.20;;;29.80;82.30;;;;;;5073760;28;20461;-79
2022/09/05 09:26:09;;;;;;;6.95;3.75;;;30.10;81.80;;;;;;5055214;28;20457;-81
2022/09/05 09:28:44;;;;;;;3.72;2.80;;;30.30;79.60;;;;;;5056853;28;20107;-82
2022/09/05 09:31:12;;;;;;;3.83;3.25;;;30.30;77.00;;;;;;5073578;28;20055;-79
2022/09/05 09:34:10;;;;;;;4.47;2.60;;;30.20;76.00;;;;;;5056058;28;20453;-79
2022/09/05 09:37:08;;;;;;;3.30;2.63;;;30.10;75.60;;;;;;5073548;28;20178;-80
2022/09/05 09:40:04;;;;;;;6.30;2.38;;;29.90;75.80;;;;;;5073427;28;20041;-80
2022/09/05 09:42:52;;;;;;;5.63;2.65;;;29.90;76.00;;;;;;5055717;28;20067;-81
2022/09/05 09:45:54;;;;;;;5.20;2.80;;;29.90;75.20;;;;;;5068762;28;20057;-79
2022/09/05 09:48:57;;;;;;;3.97;2.55;;;30.10;74.70;;;;;;5067116;28;20118;-79
2022/09/05 09:51:59;;;;;;;5.45;2.75;;;30.40;74.70;;;;;;5039148;28;20036;-81
2022/09/05 09:54:53;;;;;;;3.78;2.50;;;30.70;74.30;;;;;;5034146;28;20102;-83
2022/09/05 09:57:55;;;;;;;4.03;2.17;;;30.90;71.70;;;;;;5039068;28;20048;-80
2022/09/05 10:00:23;;;;;;;7.15;3.53;;;31.00;72.70;;;;;;5054816;28;20041;-81
2022/09/05 10:03:07;;;;;;;3.97;2.67;;;31.40;70.90;;;;;;5055438;28;20048;-79
2022/09/05 10:05:48;;;;;;;3.72;2.40;;;31.50;69.80;;;;;;5055527;28;20353;-80
2022/09/05 10:09:00;;;;;;;3.28;2.60;;;31.60;69.20;;;;;;5055389;28;20044;-81
2022/09/05 10:12:04;;;;;;;3.60;2.60;;;31.80;69.70;;;;;;5072785;28;20342;-79
2022/09/05 10:14:55;;;;;;;3.60;2.28;;;32.00;69.70;;;;;;5039494;28;20044;-80
2022/09/05 10:17:21;;;;;;;3.88;2.42;;;32.20;67.10;;;;;;5055454;28;20299;-81
2022/09/05 10:20:13;;;;;;;4.57;2.30;;;32.20;65.80;;;;;;5055158;28;20040;-82
2022/09/05 10:23:13;;;;;;;6.18;2.42;;;32.20;65.50;;;;;;5037085;28;20369;-81
2022/09/05 10:26:17;;;;;;;3.40;2.33;;;32.40;66.70;;;;;;5055528;28;20051;-80
2022/09/05 10:28:48;;;;;;;4.53;2.30;;;32.50;65.90;;;;;;5054960;28;20044;-80
2022/09/05 10:31:21;;;;;;;3.38;2.35;;;32.70;65.30;;;;;;5055149;28;20036;-80
2022/09/05 10:34:26;;;;;;;5.60;2.60;;;33.00;64.30;;;;;;5055063;28;20045;-77
2022/09/05 10:37:03;;;;;;;3.33;2.35;;;33.10;63.60;;;;;;5072718;28;20071;-79
2022/09/05 10:39:36;;;;;;;4.03;2.45;;;33.20;63.00;;;;;;5055104;28;20044;-80
2022/09/05 10:42:20;;;;;;;4.00;2.25;;;33.20;61.40;;;;;;5072391;28;20044;-79
2022/09/05 10:44:56;;;;;;;4.18;2.83;;;33.30;62.30;;;;;;5054814;28;20045;-80
2022/09/05 10:47:38;;;;;;;4.65;1.90;;;33.50;61.90;;;;;;5075839;28;20127;-81
2022/09/05 10:50:28;;;;;;;5.88;2.17;;;33.50;60.60;;;;;;5093569;28;20039;-80
2022/09/05 10:53:22;;;;;;;2.92;1.83;;;33.50;59.50;;;;;;5092442;28;20079;-79
2022/09/05 10:56:15;;;;;;;3.47;1.90;;;33.30;59.80;;;;;;5092610;28;20149;-80
2022/09/05 10:59:00;;;;;;;3.42;1.80;;;33.50;61.70;;;;;;5092510;28;20044;-81
2022/09/05 11:02:13;;;;;;;2.85;2.17;;;33.70;59.10;;;;;;5074904;28;20075;-80
2022/09/05 11:04:42;;;;;;;2.83;2.08;;;33.60;58.50;;;;;;4994033;28;20050;-82
2022/09/05 11:07:38;;;;;;;2.83;1.60;;;33.50;58.10;;;;;;5059333;28;20135;-79
2022/09/05 11:10:19;;;;;;;5.10;1.80;;;33.50;59.50;;;;;;5093165;28;20042;-81
2022/09/05 11:12:53;;;;;;;5.00;2.70;;;33.70;58.80;;;;;;5078906;28;20044;-80
2022/09/05 11:15:53;;;;;;;2.67;1.98;;;33.30;56.60;;;;;;5078775;28;20323;-81
2022/09/05 11:18:45;;;;;;;4.40;2.15;;;32.60;58.50;;;;;;5085890;28;20052;-81
2022/09/05 11:21:30;;;;;;;3.90;1.80;;;32.40;58.60;;;;;;5078452;28;20353;-80
2022/09/05 11:24:37;;;;;;;3.20;1.80;;;32.30;58.80;;;;;;5096450;28;20040;-81
2022/09/05 11:27:32;;;;;;;3.70;2.17;;;31.80;58.90;;;;;;5078529;28;20047;-81
2022/09/05 11:30:14;;;;;;;5.20;1.80;;;31.60;60.00;;;;;;5096270;28;20411;-80
2022/09/05 11:33:02;;;;;;;8.57;1.88;;;31.80;58.30;;;;;;5078470;28;20051;-81
2022/09/05 11:35:35;;;;;;;4.03;2.05;;;32.20;58.70;;;;;;5096014;28;20065;-79
2022/09/05 11:38:10;;;;;;;3.72;1.80;;;32.50;57.20;;;;;;5061738;28;20036;-80
2022/09/05 11:40:57;;;;;;;2.97;1.92;;;32.60;57.50;;;;;;5078233;28;20142;-81
2022/09/05 11:43:47;;;;;;;4.53;2.00;;;32.50;56.50;;;;;;5095736;28;20441;-81
2022/09/05 11:46:16;;;;;;;4.65;2.42;;;32.40;57.70;;;;;;5077695;28;20537;-86
2022/09/05 11:49:03;;;;;;;5.20;2.10;;;32.60;57.10;;;;;;5095898;28;20410;-81
2022/09/05 11:52:05;;;;;;;3.78;1.60;;;32.50;57.00;;;;;;5078117;28;20048;-82
2022/09/05 11:55:02;;;;;;;3.33;1.70;;;32.00;55.60;;;;;;5095930;28;20120;-83
2022/09/05 11:57:52;;;;;;;3.47;1.73;;;31.70;56.20;;;;;;5060975;28;20357;-79
2022/09/05 12:00:50;;;;;;;7.57;2.22;;;31.50;55.40;;;;;;5077939;28;20392;-79
2022/09/05 12:03:30;;;;;;;3.78;1.35;;;31.30;53.70;;;;;;5077696;28;20043;-78
2022/09/05 12:06:29;;;;;;;2.13;1.60;;;31.00;53.90;;;;;;5095516;28;20063;-82
2022/09/05 12:09:20;;;;;;;2.08;1.23;;;30.70;54.40;;;;;;5077678;28;20520;-78
2022/09/05 12:12:42;;;;;;;2.30;1.40;;;30.50;54.40;;;;;;5077590;28;20443;-79
2022/09/05 12:15:32;;;;;;;2.55;1.38;;;30.30;55.60;;;;;;5019784;28;20048;-79
2022/09/05 12:18:31;;;;;;;2.50;1.70;;;30.10;55.60;;;;;;5052626;28;20339;-79
2022/09/05 12:21:11;;;;;;;3.58;1.70;;;30.00;57.20;;;;;;5076676;28;20080;-81
2022/09/05 12:23:40;;;;;;;5.57;1.50;;;30.00;56.30;;;;;;5060095;28;20036;-82
2022/09/05 12:26:18;;;;;;;5.03;1.58;;;30.00;56.60;;;;;;5077422;28;20044;-82
2022/09/05 12:28:51;;;;;;;3.28;1.70;;;30.00;57.10;;;;;;5056004;28;20043;-79
2022/09/05 12:31:40;;;;;;;3.80;1.77;;;30.20;56.20;;;;;;5096553;28;20043;-80
2022/09/05 12:34:12;;;;;;;4.10;1.85;;;30.30;56.20;;;;;;5061828;28;20070;-79
2022/09/05 12:36:48;;;;;;;4.32;2.00;;;30.30;56.00;;;;;;5094495;28;20465;-80
2022/09/05 12:39:36;;;;;;;3.15;1.88;;;30.60;56.00;;;;;;5077335;28;20105;-81
2022/09/05 12:42:08;;;;;;;2.53;1.80;;;30.70;56.70;;;;;;5077262;28;20138;-80
2022/09/05 12:45:07;;;;;;;3.10;1.85;;;30.70;56.40;;;;;;5094817;28;20101;-80
2022/09/05 12:47:46;;;;;;;;;;;30.80;56.30;;;;;;5060691;28;20056;-80
2022/09/05 12:50:18;;;;;;;5.93;1.73;;;30.90;55.50;;;;;;5076876;28;20229;-79
2022/09/05 12:52:58;;;;;;;4.72;1.70;;;30.90;56.00;;;;;;5076839;28;20044;-79
2022/09/05 12:55:35;;;;;;;3.28;1.38;;;31.10;55.30;;;;;;5076709;28;20036;-79
2022/09/05 12:58:10;;;;;;;2.58;1.35;;;31.20;53.50;;;;;;5094315;28;20123;-79
2022/09/05 13:00:44;;;;;;;4.07;1.67;;;31.10;52.80;;;;;;5076673;28;20055;-80
2022/09/05 13:03:17;;;;;;;3.60;1.50;;;30.90;53.80;;;;;;5094081;28;20436;-80
2022/09/05 13:05:44;;;;;;;4.70;1.73;;;30.80;54.60;;;;;;5094361;28;20400;-79
2022/09/05 13:08:20;;;;;;;2.42;1.65;;;30.90;55.30;;;;;;5076288;28;20441;-79
2022/09/05 13:10:55;;;;;;;2.70;1.80;;;31.00;55.60;;;;;;5094138;28;20044;-79
2022/09/05 13:13:33;;;;;;;3.28;1.38;;;31.00;54.60;;;;;;5076412;28;20051;-79
2022/09/05 13:16:02;;;;;;;3.05;1.90;;;31.00;55.90;;;;;;5094151;28;20429;-81
2022/09/05 13:18:46;;;;;;;3.30;1.67;;;31.10;55.50;;;;;;5094250;28;20761;-81
2022/09/05 13:21:20;;;;;;;1.58;1.13;;;31.20;55.40;;;;;;5055722;28;20298;-82
2022/09/05 13:24:04;;;;;;;1.88;1.38;;;31.20;52.60;;;;;;5093938;28;20036;-80
2022/09/05 13:26:59;;;;;;;3.25;1.10;;;31.10;49.10;;;;;;5076250;28;20035;-81
2022/09/05 13:29:36;;;;;;;2.83;1.00;;;30.80;48.40;;;;;;5064333;28;20056;-79
2022/09/05 13:32:14;;;;;;;3.72;1.40;;;30.50;49.30;;;;;;5078270;28;20036;-79
2022/09/05 13:34:54;;;;;;;2.50;1.35;;;30.50;50.60;;;;;;5093725;28;20040;-80
2022/09/05 13:37:29;;;;;;;3.42;1.40;;;30.50;51.40;;;;;;5075853;28;20031;-81
2022/09/05 13:39:58;;;;;;;5.50;1.95;;;30.60;51.90;;;;;;5075950;28;20341;-79
2022/09/05 13:42:34;;;;;;;3.42;1.40;;;30.80;52.50;;;;;;5075924;28;20353;-79
2022/09/05 13:45:01;;;;;;;4.15;1.40;;;30.90;52.20;;;;;;5075632;28;20570;-80
2022/09/05 13:48:19;;;;;;;2.42;1.58;;;30.90;52.90;;;;;;5075723;28;20097;-79
2022/09/05 13:50:53;;;;;;;2.03;1.20;;;31.00;51.40;;;;;;5073504;28;20051;-81
2022/09/05 13:53:33;;;;;;;2.80;1.42;;;30.90;51.80;;;;;;5058865;28;20058;-80
2022/09/05 13:56:31;;;;;;;3.33;1.63;;;30.80;52.00;;;;;;5075547;28;20326;-79
2022/09/05 13:59:07;;;;;;;3.38;1.70;;;30.80;53.20;;;;;;5059344;28;20484;-81
2022/09/05 14:01:51;;;;;;;1.95;1.50;;;30.70;53.30;;;;;;5075426;28;20043;-81
2022/09/05 14:04:49;;;;;;;4.28;1.58;;;30.60;53.10;;;;;;5075391;28;20085;-80
2022/09/05 14:07:57;;;;;;;2.97;1.40;;;30.60;52.80;;;;;;5074557;28;20040;-81
2022/09/05 14:10:38;;;;;;;3.08;1.70;;;30.50;52.80;;;;;;5093194;28;20051;-80
2022/09/05 14:13:24;;;;;;;3.70;1.95;;;30.40;52.60;;;;;;5075334;28;20040;-79
2022/09/05 14:15:55;;;;;;;4.15;1.70;;;30.30;53.30;;;;;;5075389;28;20121;-78